sensor_id;sensor_type;location;lat;lon;timestamp;P1;durP1;ratioP1;P2;durP2;ratioP2
59702;SDS011;45570;48.782;8.332;2023-03-01T00:01:08;39.05;;;19.77;;
59702;SDS011;45570;48.782;8.332;2023-03-01T00:03:38;38.15;;;18.83;;
59702;SDS011;45570;48.782;8.332;2023-03-01T00:06:06;38.75;;;18.35;;
59702;SDS011;45570;48.782;8.332;2023-03-01T00:08:35;32.05;;;18.38;;
59702;SDS011;45570;48.782;8.332;2023-03-01T00:11:05;37.25;;;19.13;;
59702;SDS011;45570;48.782;8.332;2023-03-01T00:13:35;37.50;;;18.80;;
59702;SDS011;45570;48.782;8.332;2023-03-01T00:16:05;36.35;;;19.30;;
59702;SDS011;45570;48.782;8.332;2023-03-01T00:18:39;37.45;;;18.80;;
59702;SDS011;45570;48.782;8.332;2023-03-01T00:21:08;34.30;;;19.48;;
59702;SDS011;45570;48.782;8.332;2023-03-01T00:23:37;39.47;;;19.65;;
59702;SDS011;45570;48.782;8.332;2023-03-01T00:26:06;38.08;;;18.92;;
59702;SDS011;45570;48.782;8.332;2023-03-01T00:28:38;33.88;;;17.88;;
59702;SDS011;45570;48.782;8.332;2023-03-01T00:31:09;36.08;;;18.17;;
59702;SDS011;45570;48.782;8.332;2023-03-01T00:33:40;35.97;;;17.67;;
59702;SDS011;45570;48.782;8.332;2023-03-01T00:36:09;39.08;;;17.40;;
59702;SDS011;45570;48.782;8.332;2023-03-01T00:38:39;34.42;;;18.35;;
59702;SDS011;45570;48.782;8.332;2023-03-01T00:41:09;33.80;;;17.33;;
59702;SDS011;45570;48.782;8.332;2023-03-01T00:43:40;33.95;;;17.48;;
59702;SDS011;45570;48.782;8.332;2023-03-01T00:46:11;34.00;;;17.80;;
59702;SDS011;45570;48.782;8.332;2023-03-01T00:48:42;34.83;;;18.83;;
59702;SDS011;45570;48.782;8.332;2023-03-01T00:51:11;39.13;;;18.67;;
59702;SDS011;45570;48.782;8.332;2023-03-01T00:53:41;34.58;;;17.27;;
59702;SDS011;45570;48.782;8.332;2023-03-01T00:56:11;36.22;;;17.85;;
59702;SDS011;45570;48.782;8.332;2023-03-01T00:58:42;37.38;;;18.25;;
59702;SDS011;45570;48.782;8.332;2023-03-01T01:01:14;36.67;;;18.40;;
59702;SDS011;45570;48.782;8.332;2023-03-01T01:03:45;43.13;;;20.73;;
59702;SDS011;45570;48.782;8.332;2023-03-01T01:06:16;35.35;;;17.60;;
59702;SDS011;45570;48.782;8.332;2023-03-01T01:08:46;35.42;;;17.48;;
59702;SDS011;45570;48.782;8.332;2023-03-01T01:11:15;39.63;;;18.33;;
59702;SDS011;45570;48.782;8.332;2023-03-01T01:13:44;36.13;;;18.70;;
59702;SDS011;45570;48.782;8.332;2023-03-01T01:16:16;38.28;;;19.02;;
59702;SDS011;45570;48.782;8.332;2023-03-01T01:18:45;34.88;;;18.17;;
59702;SDS011;45570;48.782;8.332;2023-03-01T01:21:15;35.47;;;18.33;;
59702;SDS011;45570;48.782;8.332;2023-03-01T01:23:45;34.65;;;18.67;;
59702;SDS011;45570;48.782;8.332;2023-03-01T01:26:15;36.30;;;18.08;;
59702;SDS011;45570;48.782;8.332;2023-03-01T01:28:45;41.33;;;18.15;;
59702;SDS011;45570;48.782;8.332;2023-03-01T01:31:14;32.08;;;17.85;;
59702;SDS011;45570;48.782;8.332;2023-03-01T01:33:45;36.92;;;17.55;;
59702;SDS011;45570;48.782;8.332;2023-03-01T01:36:14;36.42;;;18.65;;
59702;SDS011;45570;48.782;8.332;2023-03-01T01:38:42;35.38;;;17.23;;
59702;SDS011;45570;48.782;8.332;2023-03-01T01:41:11;34.47;;;18.33;;
59702;SDS011;45570;48.782;8.332;2023-03-01T01:43:42;34.03;;;17.42;;
59702;SDS011;45570;48.782;8.332;2023-03-01T01:46:15;37.80;;;18.45;;
59702;SDS011;45570;48.782;8.332;2023-03-01T01:48:53;34.85;;;17.73;;
59702;SDS011;45570;48.782;8.332;2023-03-01T01:51:28;34.60;;;17.75;;
59702;SDS011;45570;48.782;8.332;2023-03-01T01:54:06;32.72;;;17.45;;
59702;SDS011;45570;48.782;8.332;2023-03-01T01:56:38;33.50;;;17.63;;
59702;SDS011;45570;48.782;8.332;2023-03-01T01:59:10;41.20;;;18.02;;
59702;SDS011;45570;48.782;8.332;2023-03-01T02:01:41;35.75;;;17.58;;
59702;SDS011;45570;48.782;8.332;2023-03-01T02:04:10;31.63;;;16.55;;
59702;SDS011;45570;48.782;8.332;2023-03-01T02:06:39;35.13;;;17.52;;
59702;SDS011;45570;48.782;8.332;2023-03-01T02:09:13;31.92;;;16.27;;
59702;SDS011;45570;48.782;8.332;2023-03-01T02:11:43;33.25;;;16.75;;
59702;SDS011;45570;48.782;8.332;2023-03-01T02:14:13;30.90;;;16.58;;
59702;SDS011;45570;48.782;8.332;2023-03-01T02:16:44;35.13;;;17.60;;
59702;SDS011;45570;48.782;8.332;2023-03-01T02:19:13;37.35;;;17.90;;
59702;SDS011;45570;48.782;8.332;2023-03-01T02:21:49;39.38;;;18.40;;
59702;SDS011;45570;48.782;8.332;2023-03-01T02:24:29;36.33;;;18.63;;
59702;SDS011;45570;48.782;8.332;2023-03-01T02:27:03;40.00;;;18.05;;
59702;SDS011;45570;48.782;8.332;2023-03-01T02:29:34;41.05;;;19.50;;
59702;SDS011;45570;48.782;8.332;2023-03-01T02:32:03;37.17;;;18.20;;
59702;SDS011;45570;48.782;8.332;2023-03-01T02:34:31;40.75;;;18.15;;
59702;SDS011;45570;48.782;8.332;2023-03-01T02:37:01;37.72;;;17.98;;
59702;SDS011;45570;48.782;8.332;2023-03-01T02:39:33;35.83;;;17.90;;
59702;SDS011;45570;48.782;8.332;2023-03-01T02:42:09;34.78;;;17.92;;
59702;SDS011;45570;48.782;8.332;2023-03-01T02:44:42;34.60;;;17.27;;
59702;SDS011;45570;48.782;8.332;2023-03-01T02:47:11;29.73;;;16.92;;
59702;SDS011;45570;48.782;8.332;2023-03-01T02:49:40;36.28;;;18.20;;
59702;SDS011;45570;48.782;8.332;2023-03-01T02:52:16;40.60;;;17.40;;
59702;SDS011;45570;48.782;8.332;2023-03-01T02:54:56;39.58;;;18.80;;
59702;SDS011;45570;48.782;8.332;2023-03-01T02:57:28;38.85;;;18.80;;
59702;SDS011;45570;48.782;8.332;2023-03-01T03:00:00;39.45;;;17.80;;
59702;SDS011;45570;48.782;8.332;2023-03-01T03:02:35;39.65;;;18.10;;
59702;SDS011;45570;48.782;8.332;2023-03-01T03:05:14;38.85;;;18.65;;
59702;SDS011;45570;48.782;8.332;2023-03-01T03:07:46;30.90;;;16.25;;
59702;SDS011;45570;48.782;8.332;2023-03-01T03:10:16;37.80;;;18.13;;
59702;SDS011;45570;48.782;8.332;2023-03-01T03:12:48;36.58;;;17.70;;
59702;SDS011;45570;48.782;8.332;2023-03-01T03:15:19;35.15;;;17.40;;
59702;SDS011;45570;48.782;8.332;2023-03-01T03:17:49;33.60;;;16.90;;
59702;SDS011;45570;48.782;8.332;2023-03-01T03:20:19;37.17;;;17.52;;
59702;SDS011;45570;48.782;8.332;2023-03-01T03:22:50;36.38;;;18.23;;
59702;SDS011;45570;48.782;8.332;2023-03-01T03:25:21;42.10;;;18.25;;
59702;SDS011;45570;48.782;8.332;2023-03-01T03:27:51;35.72;;;16.98;;
59702;SDS011;45570;48.782;8.332;2023-03-01T03:30:25;37.72;;;17.65;;
59702;SDS011;45570;48.782;8.332;2023-03-01T03:32:56;35.83;;;18.25;;
59702;SDS011;45570;48.782;8.332;2023-03-01T03:35:26;39.22;;;18.50;;
59702;SDS011;45570;48.782;8.332;2023-03-01T03:37:57;39.03;;;19.38;;
59702;SDS011;45570;48.782;8.332;2023-03-01T03:40:29;40.35;;;19.33;;
59702;SDS011;45570;48.782;8.332;2023-03-01T03:42:59;39.90;;;18.13;;
59702;SDS011;45570;48.782;8.332;2023-03-01T03:45:30;39.78;;;19.13;;
59702;SDS011;45570;48.782;8.332;2023-03-01T03:48:00;44.15;;;19.95;;
59702;SDS011;45570;48.782;8.332;2023-03-01T03:50:29;40.45;;;18.17;;
59702;SDS011;45570;48.782;8.332;2023-03-01T03:52:57;37.38;;;19.23;;
59702;SDS011;45570;48.782;8.332;2023-03-01T03:55:28;41.90;;;19.52;;
59702;SDS011;45570;48.782;8.332;2023-03-01T03:57:57;46.88;;;20.42;;
59702;SDS011;45570;48.782;8.332;2023-03-01T04:00:30;40.95;;;18.65;;
59702;SDS011;45570;48.782;8.332;2023-03-01T04:02:58;41.33;;;19.73;;
59702;SDS011;45570;48.782;8.332;2023-03-01T04:05:27;43.60;;;20.13;;
59702;SDS011;45570;48.782;8.332;2023-03-01T04:07:56;42.50;;;20.73;;
59702;SDS011;45570;48.782;8.332;2023-03-01T04:10:35;42.90;;;19.17;;
59702;SDS011;45570;48.782;8.332;2023-03-01T04:13:05;49.60;;;20.70;;
59702;SDS011;45570;48.782;8.332;2023-03-01T04:15:36;37.85;;;18.80;;
59702;SDS011;45570;48.782;8.332;2023-03-01T04:18:05;42.15;;;18.83;;
59702;SDS011;45570;48.782;8.332;2023-03-01T04:20:34;41.17;;;18.73;;
59702;SDS011;45570;48.782;8.332;2023-03-01T04:23:04;40.25;;;19.50;;
59702;SDS011;45570;48.782;8.332;2023-03-01T04:25:40;40.97;;;20.75;;
59702;SDS011;45570;48.782;8.332;2023-03-01T04:28:10;38.63;;;19.02;;
59702;SDS011;45570;48.782;8.332;2023-03-01T04:30:39;39.38;;;19.52;;
59702;SDS011;45570;48.782;8.332;2023-03-01T04:33:09;39.75;;;19.33;;
59702;SDS011;45570;48.782;8.332;2023-03-01T04:35:37;36.20;;;19.38;;
59702;SDS011;45570;48.782;8.332;2023-03-01T04:38:07;43.00;;;20.40;;
59702;SDS011;45570;48.782;8.332;2023-03-01T04:40:36;40.55;;;19.92;;
59702;SDS011;45570;48.782;8.332;2023-03-01T04:43:05;45.97;;;21.17;;
59702;SDS011;45570;48.782;8.332;2023-03-01T04:45:33;47.75;;;21.33;;
59702;SDS011;45570;48.782;8.332;2023-03-01T04:48:04;44.88;;;20.40;;
59702;SDS011;45570;48.782;8.332;2023-03-01T04:50:33;45.83;;;21.50;;
59702;SDS011;45570;48.782;8.332;2023-03-01T04:53:02;43.25;;;20.67;;
59702;SDS011;45570;48.782;8.332;2023-03-01T04:55:31;40.58;;;21.27;;
59702;SDS011;45570;48.782;8.332;2023-03-01T04:57:59;52.03;;;22.35;;
59702;SDS011;45570;48.782;8.332;2023-03-01T05:00:28;44.22;;;21.35;;
59702;SDS011;45570;48.782;8.332;2023-03-01T05:02:57;41.75;;;21.65;;
59702;SDS011;45570;48.782;8.332;2023-03-01T05:05:30;40.47;;;20.15;;
59702;SDS011;45570;48.782;8.332;2023-03-01T05:08:00;41.58;;;19.45;;
59702;SDS011;45570;48.782;8.332;2023-03-01T05:10:31;41.88;;;20.80;;
59702;SDS011;45570;48.782;8.332;2023-03-01T05:13:02;46.90;;;20.92;;
59702;SDS011;45570;48.782;8.332;2023-03-01T05:15:31;42.85;;;20.73;;
59702;SDS011;45570;48.782;8.332;2023-03-01T05:18:00;46.38;;;20.77;;
59702;SDS011;45570;48.782;8.332;2023-03-01T05:20:30;54.95;;;22.40;;
59702;SDS011;45570;48.782;8.332;2023-03-01T05:22:59;40.05;;;19.90;;
59702;SDS011;45570;48.782;8.332;2023-03-01T05:25:32;47.20;;;22.13;;
59702;SDS011;45570;48.782;8.332;2023-03-01T05:28:01;43.17;;;20.55;;
59702;SDS011;45570;48.782;8.332;2023-03-01T05:30:31;45.78;;;22.23;;
59702;SDS011;45570;48.782;8.332;2023-03-01T05:33:00;43.78;;;19.38;;
59702;SDS011;45570;48.782;8.332;2023-03-01T05:35:32;46.95;;;22.25;;
59702;SDS011;45570;48.782;8.332;2023-03-01T05:38:00;43.70;;;20.80;;
59702;SDS011;45570;48.782;8.332;2023-03-01T05:40:29;48.05;;;22.52;;
59702;SDS011;45570;48.782;8.332;2023-03-01T05:42:57;43.28;;;21.73;;
59702;SDS011;45570;48.782;8.332;2023-03-01T05:45:26;45.15;;;20.90;;
59702;SDS011;45570;48.782;8.332;2023-03-01T05:47:55;46.90;;;22.15;;
59702;SDS011;45570;48.782;8.332;2023-03-01T05:50:25;51.20;;;23.55;;
59702;SDS011;45570;48.782;8.332;2023-03-01T05:52:58;47.45;;;24.10;;
59702;SDS011;45570;48.782;8.332;2023-03-01T05:55:28;43.15;;;22.25;;
59702;SDS011;45570;48.782;8.332;2023-03-01T05:57:58;48.33;;;24.90;;
59702;SDS011;45570;48.782;8.332;2023-03-01T06:00:27;54.45;;;23.17;;
59702;SDS011;45570;48.782;8.332;2023-03-01T06:02:57;49.45;;;24.08;;
59702;SDS011;45570;48.782;8.332;2023-03-01T06:05:26;49.25;;;24.05;;
59702;SDS011;45570;48.782;8.332;2023-03-01T06:07:59;46.28;;;24.05;;
59702;SDS011;45570;48.782;8.332;2023-03-01T06:10:28;47.75;;;24.02;;
59702;SDS011;45570;48.782;8.332;2023-03-01T06:12:57;48.20;;;23.23;;
59702;SDS011;45570;48.782;8.332;2023-03-01T06:15:25;43.90;;;22.70;;
59702;SDS011;45570;48.782;8.332;2023-03-01T06:17:54;46.88;;;23.92;;
59702;SDS011;45570;48.782;8.332;2023-03-01T06:20:26;52.08;;;24.25;;
59702;SDS011;45570;48.782;8.332;2023-03-01T06:22:56;51.83;;;24.67;;
59702;SDS011;45570;48.782;8.332;2023-03-01T06:25:26;48.92;;;23.38;;
59702;SDS011;45570;48.782;8.332;2023-03-01T06:27:55;49.78;;;23.95;;
59702;SDS011;45570;48.782;8.332;2023-03-01T06:30:24;47.08;;;23.23;;
59702;SDS011;45570;48.782;8.332;2023-03-01T06:32:54;46.60;;;23.70;;
59702;SDS011;45570;48.782;8.332;2023-03-01T06:35:28;45.22;;;22.60;;
59702;SDS011;45570;48.782;8.332;2023-03-01T06:38:00;49.13;;;24.10;;
59702;SDS011;45570;48.782;8.332;2023-03-01T06:40:30;49.80;;;24.75;;
59702;SDS011;45570;48.782;8.332;2023-03-01T06:43:01;47.65;;;23.13;;
59702;SDS011;45570;48.782;8.332;2023-03-01T06:45:30;46.00;;;23.33;;
59702;SDS011;45570;48.782;8.332;2023-03-01T06:48:02;60.55;;;25.92;;
59702;SDS011;45570;48.782;8.332;2023-03-01T06:50:32;53.35;;;26.27;;
59702;SDS011;45570;48.782;8.332;2023-03-01T06:53:02;48.67;;;25.02;;
59702;SDS011;45570;48.782;8.332;2023-03-01T06:55:32;48.13;;;23.63;;
59702;SDS011;45570;48.782;8.332;2023-03-01T06:58:01;53.10;;;24.08;;
59702;SDS011;45570;48.782;8.332;2023-03-01T07:00:30;55.17;;;27.52;;
59702;SDS011;45570;48.782;8.332;2023-03-01T07:03:00;49.83;;;24.67;;
59702;SDS011;45570;48.782;8.332;2023-03-01T07:05:29;52.35;;;24.02;;
59702;SDS011;45570;48.782;8.332;2023-03-01T07:07:58;55.30;;;25.95;;
59702;SDS011;45570;48.782;8.332;2023-03-01T07:10:28;56.83;;;28.98;;
59702;SDS011;45570;48.782;8.332;2023-03-01T07:12:57;55.80;;;27.08;;
59702;SDS011;45570;48.782;8.332;2023-03-01T07:15:26;60.55;;;28.08;;
59702;SDS011;45570;48.782;8.332;2023-03-01T07:17:55;51.88;;;26.10;;
59702;SDS011;45570;48.782;8.332;2023-03-01T07:20:24;50.92;;;24.55;;
59702;SDS011;45570;48.782;8.332;2023-03-01T07:22:53;48.08;;;23.35;;
59702;SDS011;45570;48.782;8.332;2023-03-01T07:25:21;50.40;;;25.02;;
59702;SDS011;45570;48.782;8.332;2023-03-01T07:27:51;50.20;;;25.75;;
59702;SDS011;45570;48.782;8.332;2023-03-01T07:30:20;50.75;;;24.75;;
59702;SDS011;45570;48.782;8.332;2023-03-01T07:32:52;49.63;;;25.63;;
59702;SDS011;45570;48.782;8.332;2023-03-01T07:35:22;50.05;;;24.15;;
59702;SDS011;45570;48.782;8.332;2023-03-01T07:37:51;54.92;;;25.48;;
59702;SDS011;45570;48.782;8.332;2023-03-01T07:40:20;53.10;;;24.83;;
59702;SDS011;45570;48.782;8.332;2023-03-01T07:42:48;46.50;;;25.23;;
59702;SDS011;45570;48.782;8.332;2023-03-01T07:45:18;42.15;;;21.10;;
59702;SDS011;45570;48.782;8.332;2023-03-01T07:47:46;43.38;;;22.30;;
59702;SDS011;45570;48.782;8.332;2023-03-01T07:50:15;36.55;;;20.58;;
59702;SDS011;45570;48.782;8.332;2023-03-01T07:52:44;39.92;;;21.75;;
59702;SDS011;45570;48.782;8.332;2023-03-01T07:55:13;40.10;;;20.75;;
59702;SDS011;45570;48.782;8.332;2023-03-01T07:57:42;40.08;;;20.98;;
59702;SDS011;45570;48.782;8.332;2023-03-01T08:00:12;37.55;;;18.70;;
59702;SDS011;45570;48.782;8.332;2023-03-01T08:02:42;39.03;;;20.65;;
59702;SDS011;45570;48.782;8.332;2023-03-01T08:05:11;36.30;;;20.10;;
59702;SDS011;45570;48.782;8.332;2023-03-01T08:07:40;38.10;;;20.60;;
59702;SDS011;45570;48.782;8.332;2023-03-01T08:10:09;36.75;;;20.23;;
59702;SDS011;45570;48.782;8.332;2023-03-01T08:12:38;35.35;;;19.92;;
59702;SDS011;45570;48.782;8.332;2023-03-01T08:15:07;38.75;;;21.08;;
59702;SDS011;45570;48.782;8.332;2023-03-01T08:17:37;38.97;;;19.92;;
59702;SDS011;45570;48.782;8.332;2023-03-01T08:20:07;41.03;;;21.70;;
59702;SDS011;45570;48.782;8.332;2023-03-01T08:22:39;40.75;;;21.40;;
59702;SDS011;45570;48.782;8.332;2023-03-01T08:25:07;41.60;;;21.23;;
59702;SDS011;45570;48.782;8.332;2023-03-01T08:27:36;36.78;;;20.27;;
59702;SDS011;45570;48.782;8.332;2023-03-01T08:30:05;36.38;;;20.90;;
59702;SDS011;45570;48.782;8.332;2023-03-01T08:32:35;34.75;;;21.02;;
59702;SDS011;45570;48.782;8.332;2023-03-01T08:35:07;34.53;;;20.85;;
59702;SDS011;45570;48.782;8.332;2023-03-01T08:37:35;36.35;;;20.40;;
59702;SDS011;45570;48.782;8.332;2023-03-01T08:40:05;40.53;;;21.88;;
59702;SDS011;45570;48.782;8.332;2023-03-01T08:42:36;39.20;;;22.45;;
59702;SDS011;45570;48.782;8.332;2023-03-01T08:45:05;40.85;;;21.85;;
59702;SDS011;45570;48.782;8.332;2023-03-01T08:47:34;38.58;;;21.88;;
59702;SDS011;45570;48.782;8.332;2023-03-01T08:50:03;34.67;;;21.40;;
59702;SDS011;45570;48.782;8.332;2023-03-01T08:52:34;34.40;;;21.10;;
59702;SDS011;45570;48.782;8.332;2023-03-01T08:55:02;39.22;;;22.23;;
59702;SDS011;45570;48.782;8.332;2023-03-01T08:57:31;40.97;;;23.10;;
59702;SDS011;45570;48.782;8.332;2023-03-01T09:00:00;36.28;;;21.58;;
59702;SDS011;45570;48.782;8.332;2023-03-01T09:02:29;36.60;;;20.08;;
59702;SDS011;45570;48.782;8.332;2023-03-01T09:04:58;34.20;;;20.52;;
59702;SDS011;45570;48.782;8.332;2023-03-01T09:07:26;38.25;;;21.23;;
59702;SDS011;45570;48.782;8.332;2023-03-01T09:09:57;37.10;;;21.65;;
59702;SDS011;45570;48.782;8.332;2023-03-01T09:12:25;34.30;;;21.17;;
59702;SDS011;45570;48.782;8.332;2023-03-01T09:14:54;37.33;;;21.33;;
59702;SDS011;45570;48.782;8.332;2023-03-01T09:17:22;33.78;;;20.98;;
59702;SDS011;45570;48.782;8.332;2023-03-01T09:19:51;34.88;;;20.92;;
59702;SDS011;45570;48.782;8.332;2023-03-01T09:22:19;35.55;;;21.35;;
59702;SDS011;45570;48.782;8.332;2023-03-01T09:24:47;36.97;;;20.90;;
59702;SDS011;45570;48.782;8.332;2023-03-01T09:27:17;38.40;;;21.55;;
59702;SDS011;45570;48.782;8.332;2023-03-01T09:29:47;33.92;;;21.40;;
59702;SDS011;45570;48.782;8.332;2023-03-01T09:32:15;35.28;;;21.38;;
59702;SDS011;45570;48.782;8.332;2023-03-01T09:34:44;39.38;;;22.23;;
59702;SDS011;45570;48.782;8.332;2023-03-01T09:37:30;32.78;;;19.02;;
59702;SDS011;45570;48.782;8.332;2023-03-01T09:39:59;28.80;;;18.75;;
59702;SDS011;45570;48.782;8.332;2023-03-01T09:42:31;33.65;;;20.42;;
59702;SDS011;45570;48.782;8.332;2023-03-01T09:45:02;27.98;;;17.55;;
59702;SDS011;45570;48.782;8.332;2023-03-01T09:47:33;33.65;;;20.65;;
59702;SDS011;45570;48.782;8.332;2023-03-01T09:50:04;34.47;;;21.00;;
59702;SDS011;45570;48.782;8.332;2023-03-01T09:52:38;32.75;;;19.92;;
59702;SDS011;45570;48.782;8.332;2023-03-01T09:55:10;34.33;;;20.08;;
59702;SDS011;45570;48.782;8.332;2023-03-01T09:57:43;33.30;;;21.13;;
59702;SDS011;45570;48.782;8.332;2023-03-01T10:00:23;32.72;;;20.10;;
59702;SDS011;45570;48.782;8.332;2023-03-01T10:02:58;38.75;;;21.02;;
59702;SDS011;45570;48.782;8.332;2023-03-01T10:11:20;31.20;;;21.30;;
59702;SDS011;45570;48.782;8.332;2023-03-01T10:14:03;31.95;;;20.98;;
59702;SDS011;45570;48.782;8.332;2023-03-01T10:16:37;33.20;;;20.77;;
59702;SDS011;45570;48.782;8.332;2023-03-01T10:19:11;36.22;;;19.45;;
59702;SDS011;45570;48.782;8.332;2023-03-01T10:21:45;32.60;;;20.27;;
59702;SDS011;45570;48.782;8.332;2023-03-01T10:24:14;32.13;;;21.55;;
59702;SDS011;45570;48.782;8.332;2023-03-01T10:26:48;30.85;;;21.25;;
59702;SDS011;45570;48.782;8.332;2023-03-01T10:29:25;30.67;;;20.05;;
59702;SDS011;45570;48.782;8.332;2023-03-01T10:31:58;32.58;;;20.75;;
59702;SDS011;45570;48.782;8.332;2023-03-01T10:34:28;36.35;;;23.05;;
59702;SDS011;45570;48.782;8.332;2023-03-01T10:36:59;32.08;;;21.25;;
59702;SDS011;45570;48.782;8.332;2023-03-01T10:39:36;33.83;;;22.27;;
59702;SDS011;45570;48.782;8.332;2023-03-01T10:42:05;33.85;;;22.92;;
59702;SDS011;45570;48.782;8.332;2023-03-01T10:44:48;34.33;;;21.83;;
59702;SDS011;45570;48.782;8.332;2023-03-01T10:47:18;35.30;;;22.10;;
59702;SDS011;45570;48.782;8.332;2023-03-01T10:49:52;33.58;;;20.90;;
59702;SDS011;45570;48.782;8.332;2023-03-01T10:52:23;36.30;;;21.88;;
59702;SDS011;45570;48.782;8.332;2023-03-01T10:54:54;38.40;;;22.50;;
59702;SDS011;45570;48.782;8.332;2023-03-01T10:57:28;43.38;;;23.05;;
59702;SDS011;45570;48.782;8.332;2023-03-01T11:00:17;35.40;;;22.80;;
59702;SDS011;45570;48.782;8.332;2023-03-01T11:02:51;38.85;;;23.77;;
59702;SDS011;45570;48.782;8.332;2023-03-01T11:05:31;40.03;;;22.02;;
59702;SDS011;45570;48.782;8.332;2023-03-01T11:08:01;42.80;;;22.52;;
59702;SDS011;45570;48.782;8.332;2023-03-01T11:10:31;34.38;;;21.80;;
59702;SDS011;45570;48.782;8.332;2023-03-01T11:13:05;37.10;;;23.17;;
59702;SDS011;45570;48.782;8.332;2023-03-01T11:15:37;38.88;;;21.98;;
59702;SDS011;45570;48.782;8.332;2023-03-01T11:18:15;44.65;;;23.38;;
59702;SDS011;45570;48.782;8.332;2023-03-01T11:20:56;37.65;;;23.17;;
59702;SDS011;45570;48.782;8.332;2023-03-01T11:23:27;37.60;;;22.08;;
59702;SDS011;45570;48.782;8.332;2023-03-01T11:25:59;35.38;;;22.95;;
59702;SDS011;45570;48.782;8.332;2023-03-01T11:28:30;36.08;;;21.85;;
59702;SDS011;45570;48.782;8.332;2023-03-01T11:31:02;32.10;;;22.40;;
59702;SDS011;45570;48.782;8.332;2023-03-01T11:33:37;35.95;;;22.17;;
59702;SDS011;45570;48.782;8.332;2023-03-01T11:36:13;33.83;;;21.85;;
59702;SDS011;45570;48.782;8.332;2023-03-01T11:38:55;34.00;;;23.00;;
59702;SDS011;45570;48.782;8.332;2023-03-01T11:41:25;35.33;;;23.02;;
59702;SDS011;45570;48.782;8.332;2023-03-01T11:43:58;36.00;;;21.75;;
59702;SDS011;45570;48.782;8.332;2023-03-01T11:46:36;32.67;;;21.33;;
59702;SDS011;45570;48.782;8.332;2023-03-01T11:52:14;31.90;;;20.77;;
59702;SDS011;45570;48.782;8.332;2023-03-01T11:54:53;31.83;;;22.30;;
59702;SDS011;45570;48.782;8.332;2023-03-01T11:57:37;33.95;;;21.73;;
59702;SDS011;45570;48.782;8.332;2023-03-01T12:00:19;34.30;;;21.70;;
59702;SDS011;45570;48.782;8.332;2023-03-01T12:03:16;38.95;;;23.15;;
59702;SDS011;45570;48.782;8.332;2023-03-01T12:06:12;37.55;;;23.70;;
59702;SDS011;45570;48.782;8.332;2023-03-01T12:09:02;31.42;;;21.42;;
59702;SDS011;45570;48.782;8.332;2023-03-01T12:11:41;32.50;;;23.23;;
59702;SDS011;45570;48.782;8.332;2023-03-01T12:14:30;32.25;;;21.38;;
59702;SDS011;45570;48.782;8.332;2023-03-01T12:17:36;37.63;;;21.77;;
59702;SDS011;45570;48.782;8.332;2023-03-01T12:20:20;30.85;;;19.80;;
59702;SDS011;45570;48.782;8.332;2023-03-01T12:23:01;32.47;;;22.30;;
59702;SDS011;45570;48.782;8.332;2023-03-01T12:25:46;31.38;;;20.92;;
59702;SDS011;45570;48.782;8.332;2023-03-01T12:31:21;33.10;;;21.67;;
59702;SDS011;45570;48.782;8.332;2023-03-01T12:34:08;29.73;;;20.50;;
59702;SDS011;45570;48.782;8.332;2023-03-01T12:36:51;34.67;;;21.25;;
59702;SDS011;45570;48.782;8.332;2023-03-01T12:39:33;31.00;;;20.85;;
59702;SDS011;45570;48.782;8.332;2023-03-01T12:42:13;32.33;;;20.77;;
59702;SDS011;45570;48.782;8.332;2023-03-01T12:44:52;29.58;;;20.52;;
59702;SDS011;45570;48.782;8.332;2023-03-01T12:50:12;30.75;;;20.63;;
59702;SDS011;45570;48.782;8.332;2023-03-01T12:52:49;30.13;;;21.15;;
59702;SDS011;45570;48.782;8.332;2023-03-01T12:55:23;30.45;;;20.92;;
59702;SDS011;45570;48.782;8.332;2023-03-01T12:57:59;26.73;;;19.63;;
59702;SDS011;45570;48.782;8.332;2023-03-01T13:00:37;32.67;;;20.98;;
59702;SDS011;45570;48.782;8.332;2023-03-01T13:03:15;27.25;;;18.85;;
59702;SDS011;45570;48.782;8.332;2023-03-01T13:05:54;31.83;;;20.90;;
59702;SDS011;45570;48.782;8.332;2023-03-01T13:08:35;33.58;;;20.88;;
59702;SDS011;45570;48.782;8.332;2023-03-01T13:11:11;31.65;;;21.60;;
59702;SDS011;45570;48.782;8.332;2023-03-01T13:13:45;32.75;;;21.23;;
59702;SDS011;45570;48.782;8.332;2023-03-01T13:16:20;33.83;;;21.98;;
59702;SDS011;45570;48.782;8.332;2023-03-01T13:19:07;29.25;;;21.00;;
59702;SDS011;45570;48.782;8.332;2023-03-01T13:21:40;38.10;;;18.77;;
59702;SDS011;45570;48.782;8.332;2023-03-01T13:27:09;31.92;;;22.30;;
59702;SDS011;45570;48.782;8.332;2023-03-01T13:29:46;32.30;;;21.88;;
59702;SDS011;45570;48.782;8.332;2023-03-01T13:32:20;32.47;;;21.95;;
59702;SDS011;45570;48.782;8.332;2023-03-01T13:41:08;35.17;;;22.50;;
59702;SDS011;45570;48.782;8.332;2023-03-01T13:43:37;31.48;;;21.70;;
59702;SDS011;45570;48.782;8.332;2023-03-01T13:46:09;29.25;;;20.75;;
59702;SDS011;45570;48.782;8.332;2023-03-01T13:48:40;33.70;;;21.45;;
59702;SDS011;45570;48.782;8.332;2023-03-01T13:51:12;30.85;;;21.40;;
59702;SDS011;45570;48.782;8.332;2023-03-01T13:53:42;32.20;;;21.52;;
59702;SDS011;45570;48.782;8.332;2023-03-01T13:56:17;33.65;;;21.55;;
59702;SDS011;45570;48.782;8.332;2023-03-01T13:58:49;34.53;;;22.23;;
59702;SDS011;45570;48.782;8.332;2023-03-01T14:01:21;34.13;;;22.05;;
59702;SDS011;45570;48.782;8.332;2023-03-01T14:03:57;33.75;;;22.27;;
59702;SDS011;45570;48.782;8.332;2023-03-01T14:06:28;31.73;;;22.08;;
59702;SDS011;45570;48.782;8.332;2023-03-01T14:09:03;31.75;;;21.83;;
59702;SDS011;45570;48.782;8.332;2023-03-01T14:14:51;31.15;;;21.73;;
59702;SDS011;45570;48.782;8.332;2023-03-01T14:17:26;36.40;;;23.20;;
59702;SDS011;45570;48.782;8.332;2023-03-01T14:20:16;35.97;;;22.55;;
59702;SDS011;45570;48.782;8.332;2023-03-01T14:22:47;31.58;;;21.38;;
59702;SDS011;45570;48.782;8.332;2023-03-01T14:25:20;37.45;;;23.33;;
59702;SDS011;45570;48.782;8.332;2023-03-01T14:27:54;35.83;;;23.05;;
59702;SDS011;45570;48.782;8.332;2023-03-01T14:30:25;37.67;;;23.05;;
59702;SDS011;45570;48.782;8.332;2023-03-01T14:32:58;34.55;;;22.30;;
59702;SDS011;45570;48.782;8.332;2023-03-01T14:35:28;35.50;;;22.25;;
59702;SDS011;45570;48.782;8.332;2023-03-01T14:37:58;36.63;;;23.35;;
59702;SDS011;45570;48.782;8.332;2023-03-01T14:40:28;38.78;;;23.23;;
59702;SDS011;45570;48.782;8.332;2023-03-01T14:43:00;37.42;;;23.35;;
59702;SDS011;45570;48.782;8.332;2023-03-01T14:45:36;35.67;;;21.52;;
59702;SDS011;45570;48.782;8.332;2023-03-01T14:48:05;33.20;;;21.52;;
59702;SDS011;45570;48.782;8.332;2023-03-01T14:50:35;36.67;;;23.13;;
59702;SDS011;45570;48.782;8.332;2023-03-01T14:53:12;36.17;;;22.30;;
59702;SDS011;45570;48.782;8.332;2023-03-01T14:55:46;35.67;;;22.45;;
59702;SDS011;45570;48.782;8.332;2023-03-01T14:58:18;37.45;;;22.35;;
59702;SDS011;45570;48.782;8.332;2023-03-01T15:00:50;38.05;;;22.15;;
59702;SDS011;45570;48.782;8.332;2023-03-01T15:03:23;35.50;;;22.13;;
59702;SDS011;45570;48.782;8.332;2023-03-01T15:05:55;37.20;;;20.67;;
59702;SDS011;45570;48.782;8.332;2023-03-01T15:08:24;39.20;;;24.02;;
59702;SDS011;45570;48.782;8.332;2023-03-01T15:11:00;36.92;;;22.48;;
59702;SDS011;45570;48.782;8.332;2023-03-01T15:13:35;31.08;;;21.23;;
59702;SDS011;45570;48.782;8.332;2023-03-01T15:16:07;31.92;;;22.02;;